Time;durP1;ratioP1;P1;durP2;ratioP2;P2;SDS_P1;SDS_P2;PMS_P1;PMS_P2;Temp;Humidity;BMP_temperature;BMP_pressure;BME280_temperature;BME280_humidity;BME280_pressure;Samples;Min_cycle;Max_cycle;Signal;HPM_P1;HPM_P2
2023/09/20 00:01:40;;;;;;;16.27;6.57;;;17.40;99.90;;;;;;5097581;28;20024;-64
2023/09/20 00:04:07;;;;;;;16.67;6.80;;;17.40;99.90;;;;;;5097229;28;20112;-64
2023/09/20 00:06:33;;;;;;;15.50;6.68;;;17.40;99.90;;;;;;5097528;28;20031;-64
2023/09/20 00:09:00;;;;;;;15.18;6.53;;;17.50;99.90;;;;;;5097198;28;20065;-64
2023/09/20 00:11:26;;;;;;;13.25;6.00;;;17.50;99.90;;;;;;5097515;28;20028;-64
2023/09/20 00:13:53;;;;;;;13.80;5.80;;;17.50;99.90;;;;;;5097025;28;20020;-64
2023/09/20 00:16:19;;;;;;;15.18;6.35;;;17.50;99.90;;;;;;5097393;28;20024;-64
2023/09/20 00:18:45;;;;;;;15.20;6.65;;;17.40;99.90;;;;;;5096856;28;20480;-64
2023/09/20 00:21:11;;;;;;;18.15;7.38;;;17.40;99.90;;;;;;5097297;28;20562;-64
2023/09/20 00:23:37;;;;;;;14.00;6.13;;;17.40;99.90;;;;;;5096446;28;20102;-64
2023/09/20 00:26:03;;;;;;;12.75;5.47;;;17.50;99.90;;;;;;5097315;28;20099;-64
2023/09/20 00:28:31;;;;;;;10.68;5.40;;;17.50;99.90;;;;;;5096643;28;20028;-64
2023/09/20 00:30:57;;;;;;;11.35;5.05;;;17.50;99.90;;;;;;5078851;28;20024;-64
2023/09/20 00:33:23;;;;;;;17.30;6.05;;;17.50;99.90;;;;;;5097074;28;20535;-64
2023/09/20 00:35:49;;;;;;;11.05;4.65;;;17.40;99.90;;;;;;5096978;28;20053;-64
2023/09/20 00:38:16;;;;;;;10.40;4.68;;;17.50;99.90;;;;;;5096933;28;20032;-64
2023/09/20 00:40:43;;;;;;;11.02;5.00;;;17.50;99.90;;;;;;5096644;28;20074;-64
2023/09/20 00:43:11;;;;;;;14.50;5.22;;;17.40;99.90;;;;;;5078651;28;20032;-64
2023/09/20 00:45:40;;;;;;;10.35;5.00;;;17.30;99.90;;;;;;5096519;28;20069;-64
2023/09/20 00:48:09;;;;;;;9.45;5.13;;;17.30;99.90;;;;;;5078809;28;20027;-64
2023/09/20 00:50:36;;;;;;;9.82;4.40;;;17.30;99.90;;;;;;5096458;28;20031;-64
2023/09/20 00:53:07;;;;;;;15.38;5.63;;;17.20;99.90;;;;;;5078296;28;20107;-64
2023/09/20 00:55:36;;;;;;;12.20;4.30;;;17.20;99.90;;;;;;5077890;28;20091;-64
2023/09/20 00:58:11;;;;;;;12.65;4.35;;;17.30;99.90;;;;;;5096508;28;20071;-64
2023/09/20 01:00:40;;;;;;;8.75;4.18;;;17.40;99.90;;;;;;5095979;28;20051;-64
2023/09/20 01:03:07;;;;;;;12.25;4.05;;;17.30;99.90;;;;;;5096452;28;20474;-64
2023/09/20 01:05:39;;;;;;;15.48;4.68;;;17.40;99.90;;;;;;5095956;28;20026;-64
2023/09/20 01:08:06;;;;;;;14.07;4.93;;;17.30;99.90;;;;;;5096685;28;20025;-65
2023/09/20 01:10:36;;;;;;;20.02;5.47;;;17.40;99.90;;;;;;5095916;28;20020;-64
2023/09/20 01:13:05;;;;;;;18.40;4.93;;;17.30;99.90;;;;;;5096343;28;20027;-64
2023/09/20 01:15:33;;;;;;;21.55;4.90;;;17.20;99.90;;;;;;5077681;28;20071;-64
2023/09/20 01:18:01;;;;;;;15.68;4.47;;;17.10;99.90;;;;;;5077680;28;20386;-64
2023/09/20 01:20:29;;;;;;;16.08;5.65;;;17.10;99.90;;;;;;5077674;28;20058;-64
2023/09/20 01:22:56;;;;;;;17.48;5.45;;;17.10;99.90;;;;;;5077955;28;20032;-64
2023/09/20 01:25:25;;;;;;;12.27;4.32;;;17.00;99.90;;;;;;5095483;28;20031;-64
2023/09/20 01:27:56;;;;;;;15.13;4.75;;;17.00;99.90;;;;;;5077974;28;20465;-64
2023/09/20 01:30:27;;;;;;;12.63;5.03;;;17.00;99.90;;;;;;5095453;28;20042;-64
2023/09/20 01:32:58;;;;;;;13.52;4.53;;;16.90;99.90;;;;;;5095963;28;20028;-64
2023/09/20 01:35:27;;;;;;;10.10;4.50;;;16.90;99.90;;;;;;5076457;28;20036;-65
2023/09/20 01:37:53;;;;;;;9.98;4.00;;;16.90;99.90;;;;;;5095793;28;20113;-64
2023/09/20 01:40:23;;;;;;;13.95;4.35;;;16.80;99.90;;;;;;5095862;28;20055;-64
2023/09/20 01:42:49;;;;;;;10.27;4.38;;;16.70;99.90;;;;;;5095282;28;20059;-64
2023/09/20 01:45:19;;;;;;;7.78;4.20;;;16.70;99.90;;;;;;5095733;28;20032;-64
2023/09/20 01:47:47;;;;;;;10.93;4.70;;;16.60;99.90;;;;;;5095219;28;20031;-64
2023/09/20 01:50:19;;;;;;;10.88;4.38;;;16.60;99.90;;;;;;5095556;28;20525;-64
2023/09/20 01:52:49;;;;;;;9.25;4.32;;;16.70;99.90;;;;;;5094237;28;20028;-64
2023/09/20 01:55:20;;;;;;;8.45;4.22;;;16.70;99.90;;;;;;5075183;28;20440;-64
2023/09/20 01:57:51;;;;;;;14.75;4.90;;;16.70;99.90;;;;;;5094960;28;20118;-64
2023/09/20 02:00:23;;;;;;;9.98;4.00;;;16.60;99.90;;;;;;5077073;28;20071;-64
2023/09/20 02:02:51;;;;;;;12.27;4.95;;;16.60;99.90;;;;;;5095202;28;20024;-64
2023/09/20 02:05:17;;;;;;;10.38;4.68;;;16.50;99.90;;;;;;5095244;28;20090;-64
2023/09/20 02:07:46;;;;;;;15.95;4.53;;;16.50;99.90;;;;;;5076520;28;20032;-64
2023/09/20 02:10:14;;;;;;;10.90;4.88;;;16.40;99.90;;;;;;5095241;28;20529;-64
2023/09/20 02:12:44;;;;;;;9.50;4.93;;;16.50;99.90;;;;;;5094966;28;20101;-64
2023/09/20 02:15:11;;;;;;;17.05;4.97;;;16.50;99.90;;;;;;5076985;28;20032;-65
2023/09/20 02:17:40;;;;;;;15.80;5.40;;;16.60;99.90;;;;;;5076567;28;20436;-65
2023/09/20 02:20:09;;;;;;;12.48;5.13;;;16.60;99.90;;;;;;5094963;28;20028;-65
2023/09/20 02:22:39;;;;;;;12.55;6.05;;;16.50;99.90;;;;;;5094581;28;20085;-64
2023/09/20 02:25:12;;;;;;;15.43;5.28;;;16.50;99.90;;;;;;5095330;28;20050;-65
2023/09/20 02:27:42;;;;;;;26.55;5.90;;;16.40;99.90;;;;;;5094508;28;20028;-65
2023/09/20 02:30:16;;;;;;;15.57;5.72;;;16.40;99.90;;;;;;5076655;28;20034;-64
2023/09/20 02:32:44;;;;;;;14.07;5.63;;;16.40;99.90;;;;;;5094560;28;20489;-65
2023/09/20 02:35:10;;;;;;;16.40;6.00;;;16.40;99.90;;;;;;5094853;28;20055;-65
2023/09/20 02:37:37;;;;;;;11.32;5.97;;;16.40;99.90;;;;;;5094388;28;20062;-65
2023/09/20 02:40:13;;;;;;;12.88;5.80;;;16.30;99.90;;;;;;5094800;28;20465;-65
2023/09/20 02:42:47;;;;;;;13.43;5.72;;;16.30;99.90;;;;;;5094189;28;20028;-65
2023/09/20 02:45:15;;;;;;;14.20;6.00;;;16.50;99.90;;;;;;5076327;28;20034;-65
2023/09/20 02:47:43;;;;;;;10.13;5.50;;;16.50;99.90;;;;;;5076455;28;20032;-64
2023/09/20 02:50:14;;;;;;;21.13;5.78;;;16.40;99.90;;;;;;5094537;28;20028;-64
2023/09/20 02:52:40;;;;;;;16.98;5.50;;;16.30;99.90;;;;;;5076215;28;20085;-65
2023/09/20 02:55:08;;;;;;;9.85;4.63;;;16.20;99.90;;;;;;5074103;28;20025;-64
2023/09/20 02:57:37;;;;;;;10.07;4.90;;;16.10;99.90;;;;;;5093146;28;20043;-64
2023/09/20 03:00:15;;;;;;;11.85;4.78;;;16.00;99.90;;;;;;5075769;28;20454;-64
2023/09/20 03:02:45;;;;;;;16.23;4.47;;;15.90;99.90;;;;;;5076482;28;20038;-65
2023/09/20 03:05:21;;;;;;;13.82;4.55;;;15.90;99.90;;;;;;5076141;28;20477;-64
2023/09/20 03:07:49;;;;;;;12.27;4.97;;;16.00;99.90;;;;;;5076346;28;20035;-64
2023/09/20 03:10:21;;;;;;;10.73;5.38;;;16.00;99.90;;;;;;5094073;28;20393;-64
2023/09/20 03:12:51;;;;;;;14.93;5.38;;;16.10;99.90;;;;;;5076285;28;20478;-65
2023/09/20 03:15:23;;;;;;;10.98;5.00;;;16.00;99.90;;;;;;5076020;28;20058;-64
2023/09/20 03:17:50;;;;;;;15.07;5.65;;;15.90;99.90;;;;;;5094244;28;20028;-64
2023/09/20 03:20:23;;;;;;;12.05;5.30;;;15.80;99.90;;;;;;5075937;28;20050;-64
2023/09/20 03:22:54;;;;;;;16.73;5.85;;;15.80;99.90;;;;;;5076338;28;20071;-64
2023/09/20 03:25:35;;;;;;;12.55;4.63;;;15.80;99.90;;;;;;5075787;28;20054;-65
2023/09/20 03:28:03;;;;;;;17.98;5.03;;;15.80;99.90;;;;;;5076118;28;20388;-65
2023/09/20 03:30:31;;;;;;;15.88;5.93;;;15.90;99.90;;;;;;5075710;28;20024;-65
2023/09/20 03:32:58;;;;;;;10.23;5.78;;;15.80;99.90;;;;;;5076023;28;20500;-65
2023/09/20 03:35:25;;;;;;;15.18;5.25;;;15.80;99.90;;;;;;5075731;28;20451;-64
2023/09/20 03:37:52;;;;;;;15.02;5.68;;;15.70;99.90;;;;;;5076092;28;20032;-65
2023/09/20 03:40:20;;;;;;;19.92;5.30;;;15.70;99.90;;;;;;5075620;28;20092;-65
2023/09/20 03:42:49;;;;;;;14.10;5.38;;;15.60;99.90;;;;;;5076113;28;20410;-65
2023/09/20 03:45:16;;;;;;;14.60;5.40;;;15.60;99.90;;;;;;5075597;28;20031;-64
2023/09/20 03:47:45;;;;;;;12.88;5.80;;;15.70;99.90;;;;;;5076002;28;20035;-64
2023/09/20 03:50:12;;;;;;;12.43;5.03;;;15.60;99.90;;;;;;5075524;28;20397;-64
2023/09/20 03:52:39;;;;;;;13.40;5.75;;;15.60;99.90;;;;;;5075957;28;20020;-64
2023/09/20 03:55:06;;;;;;;14.35;5.65;;;15.60;99.90;;;;;;5092338;28;20024;-64
2023/09/20 03:57:34;;;;;;;17.13;6.30;;;15.60;99.90;;;;;;5078312;28;20089;-64
2023/09/20 04:00:06;;;;;;;22.00;5.95;;;15.50;99.90;;;;;;5079017;28;20048;-64
2023/09/20 04:02:39;;;;;;;21.40;6.75;;;15.50;99.90;;;;;;5097578;28;20091;-64
2023/09/20 04:05:12;;;;;;;22.75;7.57;;;15.50;99.90;;;;;;5079177;28;20028;-65
2023/09/20 04:07:40;;;;;;;20.75;6.65;;;15.50;99.90;;;;;;5097524;28;20024;-64
2023/09/20 04:10:08;;;;;;;19.52;6.57;;;15.50;99.90;;;;;;5079411;28;20024;-65
2023/09/20 04:12:36;;;;;;;20.73;7.00;;;15.50;99.90;;;;;;5062312;28;20028;-64
2023/09/20 04:15:04;;;;;;;23.52;7.70;;;15.40;99.90;;;;;;5097494;28;20032;-64
2023/09/20 04:17:32;;;;;;;20.65;7.40;;;15.40;99.90;;;;;;5097075;28;20042;-64
2023/09/20 04:20:04;;;;;;;18.65;5.90;;;15.50;99.90;;;;;;5097160;28;20054;-64
2023/09/20 04:22:31;;;;;;;18.52;6.03;;;15.50;99.90;;;;;;5078712;28;20058;-64
2023/09/20 04:24:58;;;;;;;17.75;6.75;;;15.60;99.90;;;;;;5078985;28;20069;-64
2023/09/20 04:27:24;;;;;;;27.17;6.30;;;15.50;99.90;;;;;;5078490;28;20519;-64
2023/09/20 04:29:50;;;;;;;23.02;6.85;;;15.50;99.90;;;;;;5078835;28;20410;-65
2023/09/20 04:32:16;;;;;;;15.43;6.78;;;15.50;99.90;;;;;;5078636;28;20020;-65
2023/09/20 04:34:42;;;;;;;21.33;7.32;;;15.50;99.90;;;;;;5095791;28;20069;-65
2023/09/20 04:37:09;;;;;;;30.67;8.07;;;15.50;99.90;;;;;;5078185;28;20070;-65
2023/09/20 04:39:35;;;;;;;21.42;7.03;;;15.60;99.90;;;;;;5078973;28;20034;-64
2023/09/20 04:42:01;;;;;;;21.02;6.82;;;15.50;99.90;;;;;;5078181;28;20119;-65
2023/09/20 04:44:27;;;;;;;20.15;6.10;;;15.60;99.90;;;;;;5095169;28;20123;-64
2023/09/20 04:46:57;;;;;;;30.98;7.10;;;15.60;99.90;;;;;;5078251;28;20032;-64
2023/09/20 04:49:23;;;;;;;21.70;6.20;;;15.50;99.90;;;;;;5078506;28;20030;-65
2023/09/20 04:51:50;;;;;;;17.55;6.20;;;15.60;99.90;;;;;;5078004;28;20431;-65
2023/09/20 04:54:16;;;;;;;20.35;6.70;;;15.40;99.90;;;;;;5078138;28;20039;-64
2023/09/20 04:56:47;;;;;;;14.77;5.75;;;15.50;99.90;;;;;;5078116;28;20385;-64
2023/09/20 04:59:19;;;;;;;25.33;7.35;;;15.40;99.90;;;;;;5078296;28;20075;-64
2023/09/20 05:01:46;;;;;;;15.77;6.18;;;15.50;99.90;;;;;;5078096;28;20028;-64
2023/09/20 05:04:13;;;;;;;25.40;6.80;;;15.50;99.90;;;;;;5077979;28;20031;-64
2023/09/20 05:06:43;;;;;;;16.45;5.53;;;15.60;99.90;;;;;;5078022;28;20405;-64
2023/09/20 05:09:09;;;;;;;28.85;6.65;;;15.60;99.90;;;;;;5077696;28;20497;-64
2023/09/20 05:11:35;;;;;;;17.83;7.00;;;15.60;99.90;;;;;;5088550;28;20382;-64
2023/09/20 05:14:01;;;;;;;21.83;7.22;;;15.70;99.90;;;;;;5058142;28;20028;-64
2023/09/20 05:16:27;;;;;;;15.35;6.15;;;15.80;99.90;;;;;;5076694;28;20536;-64
2023/09/20 05:18:53;;;;;;;16.98;6.22;;;15.90;99.90;;;;;;5058209;28;20028;-65
2023/09/20 05:21:19;;;;;;;12.55;5.75;;;16.00;99.90;;;;;;5075707;28;20024;-65
2023/09/20 05:23:46;;;;;;;24.70;7.68;;;16.10;99.90;;;;;;5057094;28;20032;-64
2023/09/20 05:26:12;;;;;;;25.27;7.05;;;16.30;99.90;;;;;;5076588;28;20483;-64
2023/09/20 05:28:37;;;;;;;21.52;6.90;;;16.40;99.90;;;;;;5076184;28;20027;-64
2023/09/20 05:31:04;;;;;;;27.48;8.52;;;16.70;99.90;;;;;;5058250;28;20081;-64
2023/09/20 05:33:30;;;;;;;24.52;8.40;;;16.80;99.90;;;;;;5075679;28;20423;-64
2023/09/20 05:35:59;;;;;;;14.13;8.35;;;17.00;99.90;;;;;;5074103;28;20489;-65
2023/09/20 05:38:26;;;;;;;21.10;8.40;;;17.10;99.90;;;;;;5075599;28;20436;-65
2023/09/20 05:40:53;;;;;;;28.88;8.25;;;17.20;99.90;;;;;;5075382;28;20040;-64
2023/09/20 05:43:19;;;;;;;31.52;9.43;;;17.50;99.90;;;;;;5074591;28;20047;-65
2023/09/20 05:45:45;;;;;;;30.77;9.75;;;17.60;99.90;;;;;;5075208;28;20039;-64
2023/09/20 05:48:12;;;;;;;26.55;8.95;;;17.80;99.90;;;;;;5074993;28;20021;-64
2023/09/20 05:50:40;;;;;;;25.85;9.32;;;17.90;99.90;;;;;;5074490;28;20414;-64
2023/09/20 05:53:07;;;;;;;22.48;9.43;;;18.00;99.90;;;;;;5074856;28;20028;-65
2023/09/20 05:55:40;;;;;;;39.45;10.93;;;18.10;99.90;;;;;;5076333;28;20497;-65
2023/09/20 05:58:07;;;;;;;33.30;11.80;;;18.30;99.90;;;;;;5095276;28;20063;-65
2023/09/20 06:00:38;;;;;;;23.50;10.52;;;18.40;99.90;;;;;;5085494;28;20051;-65
2023/09/20 06:03:04;;;;;;;26.67;12.52;;;18.70;99.90;;;;;;5056640;28;20024;-65
2023/09/20 06:05:37;;;;;;;34.58;15.55;;;18.90;99.90;;;;;;5073733;28;20033;-65
2023/09/20 06:08:05;;;;;;;35.03;15.68;;;19.00;99.90;;;;;;5072312;28;20072;-64
2023/09/20 06:10:32;;;;;;;43.28;17.98;;;19.20;99.90;;;;;;5073247;28;20094;-65
2023/09/20 06:13:05;;;;;;;38.20;16.00;;;19.50;99.90;;;;;;5056130;28;20063;-65
2023/09/20 06:15:31;;;;;;;34.00;15.40;;;19.60;99.90;;;;;;5075088;28;20414;-65
2023/09/20 06:17:57;;;;;;;34.58;13.18;;;20.00;99.90;;;;;;5074983;28;20024;-65
2023/09/20 06:20:24;;;;;;;27.67;13.32;;;20.20;99.90;;;;;;5073545;28;20028;-65
2023/09/20 06:22:54;;;;;;;26.40;13.63;;;20.40;99.90;;;;;;5073870;28;20020;-65
2023/09/20 06:25:22;;;;;;;27.63;11.95;;;20.30;99.90;;;;;;5073335;28;20132;-65
2023/09/20 06:27:53;;;;;;;24.02;12.05;;;20.40;99.90;;;;;;5073701;28;20028;-65
2023/09/20 06:30:21;;;;;;;31.23;13.05;;;20.50;99.90;;;;;;5073411;28;20051;-65
2023/09/20 06:32:48;;;;;;;28.05;12.85;;;20.60;99.90;;;;;;5070281;28;20025;-65
2023/09/20 06:35:21;;;;;;;32.92;12.60;;;20.70;99.90;;;;;;5073103;28;20077;-65
2023/09/20 06:37:54;;;;;;;37.47;15.20;;;20.90;99.90;;;;;;5070921;28;20035;-65
2023/09/20 06:40:23;;;;;;;38.80;15.98;;;20.90;99.90;;;;;;5073524;28;20409;-66
2023/09/20 06:42:52;;;;;;;47.78;15.85;;;20.90;99.90;;;;;;5073876;28;20054;-66
2023/09/20 06:45:19;;;;;;;39.95;15.10;;;20.90;99.90;;;;;;5074200;28;20029;-65
2023/09/20 06:47:45;;;;;;;36.88;13.60;;;21.30;99.90;;;;;;5074553;28;20056;-65
2023/09/20 06:50:15;;;;;;;28.67;12.00;;;21.50;99.90;;;;;;5074273;28;20111;-65
2023/09/20 06:52:45;;;;;;;23.90;12.00;;;21.80;99.90;;;;;;5075101;28;20472;-66
2023/09/20 06:55:17;;;;;;;27.02;11.63;;;22.10;99.90;;;;;;5094640;28;20039;-66
2023/09/20 06:57:47;;;;;;;24.90;12.50;;;22.60;99.90;;;;;;5094152;28;20035;-66
2023/09/20 07:00:19;;;;;;;29.05;11.98;;;23.00;99.90;;;;;;5094290;28;20048;-65
2023/09/20 07:02:46;;;;;;;29.63;12.40;;;23.00;99.90;;;;;;5094669;28;20028;-66
2023/09/20 07:05:13;;;;;;;28.75;11.85;;;23.40;99.70;;;;;;5095011;28;20028;-66
2023/09/20 07:07:42;;;;;;;24.80;9.45;;;23.70;98.50;;;;;;5094593;28;20032;-66
2023/09/20 07:10:09;;;;;;;28.52;10.88;;;24.00;97.70;;;;;;5095008;28;20052;-66
2023/09/20 07:12:36;;;;;;;30.25;10.60;;;24.20;97.30;;;;;;5094417;28;20032;-66
2023/09/20 07:15:02;;;;;;;32.25;10.07;;;24.60;96.40;;;;;;5094851;28;20107;-66
2023/09/20 07:17:28;;;;;;;17.65;8.35;;;24.80;95.30;;;;;;5094790;28;20032;-65
2023/09/20 07:19:54;;;;;;;18.08;9.48;;;24.60;95.10;;;;;;5094753;28;20032;-66
2023/09/20 07:22:21;;;;;;;23.05;9.23;;;24.70;93.80;;;;;;5094712;28;20024;-67
2023/09/20 07:24:47;;;;;;;21.92;8.60;;;24.80;93.30;;;;;;5081661;28;20038;-66
2023/09/20 07:27:13;;;;;;;13.68;8.15;;;24.80;93.80;;;;;;5074290;28;20801;-66
2023/09/20 07:29:41;;;;;;;18.70;8.57;;;24.90;93.90;;;;;;5074501;28;20020;-66
2023/09/20 07:32:08;;;;;;;25.45;8.38;;;25.50;93.30;;;;;;5074376;28;20445;-66
2023/09/20 07:34:34;;;;;;;12.82;6.93;;;26.10;92.40;;;;;;5078706;28;20036;-66
2023/09/20 07:37:00;;;;;;;16.27;7.13;;;26.60;91.30;;;;;;5077669;28;20393;-66
2023/09/20 07:39:26;;;;;;;15.85;7.40;;;26.70;90.30;;;;;;5078208;28;20094;-66
2023/09/20 07:41:52;;;;;;;11.90;7.35;;;27.00;88.80;;;;;;5077949;28;20482;-66
2023/09/20 07:44:30;;;;;;;9.70;6.60;;;27.40;88.20;;;;;;5077770;28;20037;-66
2023/09/20 07:47:00;;;;;;;23.00;7.10;;;27.50;84.90;;;;;;5078434;28;20036;-66
2023/09/20 07:49:26;;;;;;;26.48;8.20;;;27.30;82.60;;;;;;5078214;28;20458;-66
2023/09/20 07:51:54;;;;;;;12.05;6.68;;;27.30;84.20;;;;;;5078009;28;20462;-68
2023/09/20 07:54:20;;;;;;;47.20;9.45;;;27.40;82.80;;;;;;5091485;28;20031;-67
2023/09/20 07:56:50;;;;;;;20.00;7.32;;;27.40;81.40;;;;;;5097699;28;20385;-68
2023/09/20 07:59:17;;;;;;;15.23;6.63;;;27.50;80.40;;;;;;5093188;28;20044;-67
2023/09/20 08:01:45;;;;;;;15.00;6.82;;;27.80;78.30;;;;;;5097821;28;20028;-66
2023/09/20 08:04:11;;;;;;;15.48;6.90;;;28.20;78.80;;;;;;5097077;28;20030;-67
2023/09/20 08:06:40;;;;;;;15.68;6.55;;;27.90;78.00;;;;;;5092497;28;20032;-67
2023/09/20 08:09:13;;;;;;;14.10;6.22;;;27.90;76.30;;;;;;5097705;28;20035;-67
2023/09/20 08:11:39;;;;;;;90.65;9.63;;;28.50;76.20;;;;;;5098109;28;20166;-67
2023/09/20 08:14:05;;;;;;;19.13;6.18;;;28.30;75.40;;;;;;5098162;28;20501;-66
2023/09/20 08:16:32;;;;;;;18.10;5.60;;;29.10;72.80;;;;;;5098139;28;20028;-65
2023/09/20 08:19:20;;;;;;;15.02;5.13;;;28.90;70.30;;;;;;5097628;28;20086;-65
2023/09/20 08:21:48;;;;;;;12.57;5.18;;;29.20;70.30;;;;;;5098101;28;20042;-65
2023/09/20 09:00:27;;;;;;;9.95;4.32;;;32.30;51.90;;;;;;5096489;28;20067;-68
2023/09/20 09:03:03;;;;;;;17.52;5.57;;;31.90;50.90;;;;;;5097222;28;20032;-68
2023/09/20 09:05:30;;;;;;;12.27;5.32;;;32.10;50.70;;;;;;5096881;28;20035;-68
2023/09/20 09:07:57;;;;;;;16.30;6.05;;;32.20;50.30;;;;;;5096705;28;20024;-68
2023/09/20 09:10:23;;;;;;;78.00;6.80;;;31.90;49.70;;;;;;5096958;28;20569;-68
2023/09/20 09:12:52;;;;;;;11.68;4.65;;;32.10;50.00;;;;;;5095629;28;20080;-68
2023/09/20 09:15:18;;;;;;;6.82;3.67;;;32.20;47.20;;;;;;5096042;28;20032;-69
2023/09/20 09:17:48;;;;;;;6.60;4.18;;;31.20;45.20;;;;;;5096124;28;20513;-68
2023/09/20 09:20:15;;;;;;;11.70;3.05;;;30.80;46.60;;;;;;5095874;28;20818;-69
2023/09/20 09:22:44;;;;;;;10.05;3.00;;;31.80;45.80;;;;;;5096101;28;20024;-69
2023/09/20 09:25:14;;;;;;;10.00;3.30;;;32.20;45.40;;;;;;5094580;28;20070;-69
2023/09/20 09:27:41;;;;;;;12.90;3.67;;;32.60;46.00;;;;;;5095953;28;20453;-69
2023/09/20 09:30:15;;;;;;;10.52;3.67;;;33.10;41.80;;;;;;5096184;28;20028;-69
2023/09/20 09:32:43;;;;;;;14.13;3.97;;;31.90;44.60;;;;;;5091625;28;20016;-69
2023/09/20 09:35:12;;;;;;;12.40;4.25;;;32.00;41.60;;;;;;5094578;28;20035;-70
2023/09/20 09:37:41;;;;;;;10.43;4.88;;;30.50;43.30;;;;;;5094976;28;20106;-69
2023/09/20 09:40:09;;;;;;;9.10;3.47;;;31.00;41.80;;;;;;5095639;28;20490;-69
2023/09/20 09:42:36;;;;;;;8.52;3.65;;;30.80;41.80;;;;;;5095020;28;20473;-68
2023/09/20 09:45:06;;;;;;;11.57;3.88;;;31.40;41.00;;;;;;5095310;28;20421;-69
2023/09/20 09:47:35;;;;;;;15.05;4.38;;;30.70;41.90;;;;;;5094691;28;20030;-69
2023/09/20 09:50:06;;;;;;;14.47;5.43;;;30.10;41.60;;;;;;5095347;28;20416;-69
2023/09/20 09:52:34;;;;;;;13.50;5.30;;;30.60;42.30;;;;;;5095582;28;20016;-69
2023/09/20 09:55:00;;;;;;;10.13;4.78;;;29.80;43.40;;;;;;5094955;28;20039;-68
2023/09/20 09:57:26;;;;;;;14.63;5.18;;;29.90;43.10;;;;;;5095680;28;20028;-69
2023/09/20 10:00:10;;;;;;;17.65;6.75;;;29.80;44.20;;;;;;5096087;28;20066;-69
2023/09/20 10:02:43;;;;;;;12.30;5.38;;;29.80;43.70;;;;;;5095677;28;20051;-68
2023/09/20 10:05:13;;;;;;;11.43;4.47;;;29.10;45.20;;;;;;5095969;28;20035;-69
2023/09/20 10:07:44;;;;;;;14.55;4.80;;;29.80;44.70;;;;;;5095546;28;20031;-68
2023/09/20 10:10:13;;;;;;;15.48;5.65;;;30.70;44.20;;;;;;5095964;28;20059;-68
2023/09/20 10:12:40;;;;;;;15.32;4.95;;;31.50;41.90;;;;;;5095524;28;20016;-69
2023/09/20 10:15:09;;;;;;;14.55;6.00;;;31.30;40.70;;;;;;5095168;28;20016;-69
2023/09/20 10:17:54;;;;;;;17.38;6.78;;;30.50;41.50;;;;;;5094936;28;20032;-68
2023/09/20 10:20:22;;;;;;;15.65;7.18;;;31.30;40.90;;;;;;5095192;28;20469;-68
2023/09/20 10:22:51;;;;;;;16.50;6.28;;;32.30;40.60;;;;;;5094819;28;20103;-69
2023/09/20 10:25:36;;;;;;;17.75;8.23;;;30.60;41.90;;;;;;5095045;28;20034;-69
2023/09/20 10:28:09;;;;;;;22.52;8.15;;;31.20;40.20;;;;;;5094540;28;20020;-69
2023/09/20 10:30:55;;;;;;;27.60;7.88;;;31.10;41.30;;;;;;5095142;28;20085;-69
2023/09/20 10:33:45;;;;;;;14.38;5.97;;;31.40;40.40;;;;;;5091140;28;20058;-69
2023/09/20 10:36:13;;;;;;;12.48;6.50;;;31.40;40.90;;;;;;5095783;28;20036;-69
2023/09/20 10:38:40;;;;;;;15.27;6.35;;;31.90;40.50;;;;;;5095339;28;20046;-70
2023/09/20 10:41:10;;;;;;;15.18;6.80;;;31.90;39.20;;;;;;5094946;28;20052;-70
2023/09/20 10:43:36;;;;;;;;;;;31.40;40.20;;;;;;5096093;28;20036;-70
2023/09/20 10:46:17;;;;;;;18.35;6.60;;;30.90;40.80;;;;;;5115072;28;20014;-69
2023/09/20 10:48:49;;;;;;;18.58;6.13;;;30.80;41.90;;;;;;5115143;28;20028;-69
2023/09/20 10:51:41;;;;;;;15.07;6.47;;;31.10;41.20;;;;;;5114840;28;20470;-68
2023/09/20 10:54:29;;;;;;;18.10;6.75;;;32.30;39.60;;;;;;5101799;28;20489;-68
2023/09/20 10:57:15;;;;;;;15.52;6.35;;;32.80;38.60;;;;;;5093579;28;20485;-69
2023/09/20 10:59:45;;;;;;;22.60;6.57;;;32.50;38.80;;;;;;5094685;28;20520;-70
2023/09/20 11:02:25;;;;;;;17.25;6.32;;;32.00;38.80;;;;;;5095245;28;20020;-69
2023/09/20 11:04:53;;;;;;;32.63;10.25;;;31.40;40.40;;;;;;5094782;28;20060;-69
2023/09/20 11:07:20;;;;;;;15.30;5.97;;;31.80;39.00;;;;;;5099275;28;20027;-69
2023/09/20 11:09:47;;;;;;;14.80;6.40;;;32.00;39.90;;;;;;5101349;28;20020;-68
2023/09/20 11:12:22;;;;;;;17.48;6.72;;;32.60;38.00;;;;;;5101116;28;20031;-70
2023/09/20 11:14:50;;;;;;;15.90;6.72;;;32.20;37.80;;;;;;5100289;28;20111;-69
2023/09/20 11:17:16;;;;;;;16.25;6.60;;;32.20;37.70;;;;;;5101397;28;20466;-68
2023/09/20 11:19:43;;;;;;;16.73;7.13;;;32.60;37.30;;;;;;5100394;28;20032;-68
2023/09/20 11:22:09;;;;;;;18.23;6.28;;;32.60;37.70;;;;;;5100556;28;20020;-69
2023/09/20 11:24:37;;;;;;;14.07;6.00;;;32.50;38.30;;;;;;5102434;28;20024;-68
2023/09/20 11:27:04;;;;;;;20.95;6.00;;;33.00;38.40;;;;;;5100989;28;20027;-70
2023/09/20 11:29:31;;;;;;;16.20;6.18;;;33.30;35.90;;;;;;5082648;28;20036;-69
2023/09/20 11:31:58;;;;;;;13.73;5.28;;;33.20;36.10;;;;;;5100927;28;20020;-69
2023/09/20 11:34:25;;;;;;;11.85;5.22;;;33.80;35.80;;;;;;5100636;28;20048;-69
2023/09/20 11:36:57;;;;;;;15.82;5.88;;;33.70;35.50;;;;;;5100879;28;20051;-69
2023/09/20 11:39:28;;;;;;;15.27;6.13;;;33.10;35.80;;;;;;5100723;28;20058;-70
2023/09/20 11:42:00;;;;;;;17.02;7.32;;;32.90;36.00;;;;;;5101012;28;20439;-68
2023/09/20 11:44:35;;;;;;;29.95;8.07;;;33.30;37.40;;;;;;5099048;28;20028;-69
2023/09/20 11:47:03;;;;;;;13.23;5.75;;;33.40;35.00;;;;;;5100821;28;20093;-70
2023/09/20 11:49:29;;;;;;;13.10;6.05;;;32.20;35.90;;;;;;5100124;28;20432;-69
2023/09/20 11:51:59;;;;;;;11.95;6.05;;;32.50;37.00;;;;;;5100652;28;20031;-69
2023/09/20 11:54:29;;;;;;;15.15;6.15;;;31.30;38.60;;;;;;5099874;28;20024;-69
2023/09/20 11:56:59;;;;;;;14.00;5.57;;;32.50;38.00;;;;;;5096944;28;20482;-69
2023/09/20 11:59:27;;;;;;;12.50;5.25;;;33.10;36.00;;;;;;5082721;28;20048;-69
2023/09/20 12:01:53;;;;;;;16.58;6.03;;;33.60;35.80;;;;;;5099773;28;20032;-69
2023/09/20 12:04:19;;;;;;;18.40;6.95;;;33.40;34.30;;;;;;5100575;28;20055;-70
2023/09/20 12:06:45;;;;;;;16.38;5.38;;;31.30;37.30;;;;;;5099265;28;20032;-69
2023/09/20 12:09:12;;;;;;;18.27;6.20;;;30.20;37.50;;;;;;5099481;28;20024;-69
2023/09/20 12:11:40;;;;;;;22.98;7.05;;;30.90;38.80;;;;;;5100186;28;20302;-69
2023/09/20 12:14:12;;;;;;;11.23;5.47;;;31.40;38.60;;;;;;5100674;28;20109;-69
2023/09/20 12:16:38;;;;;;;19.60;6.07;;;31.40;38.10;;;;;;5100395;28;20047;-69
2023/09/20 12:19:04;;;;;;;19.90;7.22;;;32.10;38.90;;;;;;5097576;28;20024;-69
2023/09/20 12:21:30;;;;;;;16.80;6.35;;;32.70;37.40;;;;;;5097213;28;20036;-68
2023/09/20 12:23:56;;;;;;;14.15;6.45;;;33.30;35.90;;;;;;5096812;28;20023;-69
2023/09/20 12:26:24;;;;;;;25.95;7.47;;;32.90;35.00;;;;;;5092986;28;20059;-69
2023/09/20 12:28:50;;;;;;;16.85;5.47;;;32.70;34.90;;;;;;5096407;28;20024;-69
2023/09/20 12:31:19;;;;;;;14.07;5.35;;;33.10;35.10;;;;;;5096371;28;20089;-69
2023/09/20 12:33:46;;;;;;;19.00;6.35;;;33.10;34.20;;;;;;5095236;28;20107;-68
2023/09/20 12:36:13;;;;;;;21.35;5.68;;;33.10;35.20;;;;;;5095548;28;20320;-68
2023/09/20 12:38:42;;;;;;;18.17;5.70;;;32.90;36.00;;;;;;5096439;28;20086;-68
2023/09/20 12:41:08;;;;;;;25.83;7.38;;;32.40;35.60;;;;;;5093400;28;20420;-68
2023/09/20 12:43:36;;;;;;;20.80;7.25;;;32.60;35.10;;;;;;5095843;28;20042;-68
2023/09/20 12:46:04;;;;;;;20.05;6.35;;;32.50;33.80;;;;;;5095685;28;20035;-69
2023/09/20 12:48:36;;;;;;;17.48;5.90;;;32.30;33.40;;;;;;5077463;28;20032;-69
2023/09/20 12:51:05;;;;;;;16.17;6.13;;;32.10;35.10;;;;;;5093263;28;20023;-69
2023/09/20 12:53:32;;;;;;;14.32;6.10;;;31.30;37.80;;;;;;5092955;28;20047;-69
2023/09/20 12:55:58;;;;;;;14.18;6.10;;;31.30;39.00;;;;;;5095324;28;20062;-69
2023/09/20 12:58:24;;;;;;;20.58;6.30;;;32.00;37.10;;;;;;5096110;28;20205;-69
2023/09/20 13:00:51;;;;;;;16.45;5.80;;;32.40;36.40;;;;;;5096477;28;20079;-69
2023/09/20 13:03:17;;;;;;;26.85;7.72;;;32.30;35.10;;;;;;5095435;28;20480;-69
2023/09/20 13:05:44;;;;;;;15.95;6.75;;;32.90;35.60;;;;;;5095835;28;20051;-70
2023/09/20 13:08:16;;;;;;;16.30;6.45;;;33.10;33.50;;;;;;5095711;28;20031;-69
2023/09/20 13:10:51;;;;;;;18.63;6.20;;;31.70;35.70;;;;;;5078079;28;20114;-69
2023/09/20 13:13:24;;;;;;;14.15;5.93;;;32.50;36.10;;;;;;5095384;28;20023;-69
2023/09/20 13:15:50;;;;;;;17.58;6.22;;;33.00;34.80;;;;;;5078342;28;20032;-69
2023/09/20 13:18:16;;;;;;;17.60;5.78;;;33.30;34.60;;;;;;5095442;28;20032;-69
2023/09/20 13:20:43;;;;;;;23.70;6.93;;;33.40;33.40;;;;;;5096138;28;20039;-69